Time;durP1;ratioP1;P1;durP2;ratioP2;P2;SDS_P1;SDS_P2;PMS_P1;PMS_P2;Temp;Humidity;BMP_temperature;BMP_pressure;BME280_temperature;BME280_humidity;BME280_pressure;Samples;Min_cycle;Max_cycle;Signal;HPM_P1;HPM_P2
2022/10/15 00:01:07;;;;;;;56.13;34.10;;;13.00;99.90;;;;;;5096391;28;20036;-77
2022/10/15 00:03:35;;;;;;;59.15;35.85;;;13.50;99.90;;;;;;5108015;28;20082;-77
2022/10/15 00:06:09;;;;;;;53.63;33.58;;;14.30;99.90;;;;;;5114278;28;20047;-77
2022/10/15 00:08:36;;;;;;;55.53;33.58;;;13.10;99.90;;;;;;5081005;28;20184;-77
2022/10/15 00:11:22;;;;;;;52.03;33.58;;;13.80;99.90;;;;;;5081882;28;20044;-77
2022/10/15 00:13:49;;;;;;;58.08;36.33;;;13.10;99.90;;;;;;5089513;28;20052;-77
2022/10/15 00:16:17;;;;;;;60.80;36.42;;;14.00;99.90;;;;;;5099995;28;20127;-77
2022/10/15 00:18:43;;;;;;;59.63;36.50;;;13.00;99.90;;;;;;5079259;28;20043;-77
2022/10/15 00:21:10;;;;;;;56.20;35.90;;;13.00;99.90;;;;;;5112852;28;20043;-77
2022/10/15 00:23:37;;;;;;;59.88;36.05;;;13.10;99.90;;;;;;5096670;28;20088;-77
2022/10/15 00:26:06;;;;;;;62.33;37.45;;;13.00;99.90;;;;;;5095603;28;20127;-77
2022/10/15 00:28:31;;;;;;;50.72;34.55;;;13.00;99.90;;;;;;5077948;28;20040;-77
2022/10/15 00:31:02;;;;;;;56.95;36.83;;;13.00;99.90;;;;;;5097829;28;20086;-77
2022/10/15 00:33:28;;;;;;;61.03;37.60;;;13.00;99.90;;;;;;5115376;28;20046;-77
2022/10/15 00:36:06;;;;;;;61.25;38.15;;;13.60;99.90;;;;;;5097612;28;20055;-77
2022/10/15 00:38:33;;;;;;;62.65;36.38;;;13.00;99.90;;;;;;5095981;28;20112;-76
2022/10/15 00:40:59;;;;;;;58.40;36.63;;;13.00;99.90;;;;;;5095109;28;20044;-77
2022/10/15 00:43:42;;;;;;;57.08;37.65;;;13.00;99.90;;;;;;5076671;28;20036;-77
2022/10/15 00:46:22;;;;;;;59.17;39.10;;;13.00;99.90;;;;;;5095112;28;20051;-77
2022/10/15 00:48:53;;;;;;;60.92;38.33;;;13.00;99.90;;;;;;5093532;28;20043;-78
2022/10/15 00:51:21;;;;;;;54.88;33.60;;;13.00;99.90;;;;;;5080060;28;20079;-77
2022/10/15 00:53:48;;;;;;;56.90;37.10;;;13.20;99.90;;;;;;5079131;28;20047;-77
2022/10/15 00:56:18;;;;;;;54.22;35.42;;;13.50;99.90;;;;;;5079946;28;20554;-76
2022/10/15 00:58:44;;;;;;;57.45;36.90;;;13.00;99.90;;;;;;5115224;28;20087;-77
2022/10/15 01:01:10;;;;;;;58.10;38.90;;;13.30;99.90;;;;;;5114900;28;20506;-76
2022/10/15 01:03:35;;;;;;;54.70;36.08;;;13.20;99.90;;;;;;5115278;28;20043;-77
2022/10/15 01:06:02;;;;;;;58.25;37.88;;;13.00;99.90;;;;;;5114924;28;20043;-77
2022/10/15 01:08:28;;;;;;;58.13;37.50;;;13.00;99.90;;;;;;5115251;28;20036;-77
2022/10/15 01:11:05;;;;;;;56.20;36.58;;;13.50;99.90;;;;;;5068531;28;20048;-77
2022/10/15 01:13:55;;;;;;;52.67;35.03;;;12.90;99.90;;;;;;5076811;28;20515;-77
2022/10/15 01:16:44;;;;;;;50.28;31.10;;;13.00;99.90;;;;;;5114188;28;20044;-77
2022/10/15 01:19:37;;;;;;;57.15;36.22;;;13.00;99.90;;;;;;5080271;28;20090;-77
2022/10/15 01:22:14;;;;;;;55.22;35.42;;;12.90;99.90;;;;;;5078912;28;20431;-77
2022/10/15 01:24:47;;;;;;;55.35;34.70;;;13.70;99.90;;;;;;5109875;28;20444;-77
2022/10/15 01:27:34;;;;;;;53.65;35.78;;;13.00;99.90;;;;;;5113222;28;20458;-77
2022/10/15 01:30:18;;;;;;;49.38;34.67;;;13.00;99.90;;;;;;5079223;28;20082;-77
2022/10/15 01:33:03;;;;;;;51.45;35.03;;;12.90;99.90;;;;;;5068263;28;20361;-77
2022/10/15 01:35:43;;;;;;;53.33;32.92;;;12.90;99.90;;;;;;5114079;28;20071;-77
2022/10/15 01:38:23;;;;;;;55.25;35.78;;;12.90;99.90;;;;;;5092631;28;20032;-77
2022/10/15 01:41:25;;;;;;;53.90;34.47;;;12.90;99.90;;;;;;5075817;28;20114;-77
2022/10/15 01:43:56;;;;;;;56.17;34.83;;;12.90;99.90;;;;;;5079398;28;20063;-77
2022/10/15 01:46:34;;;;;;;53.92;34.05;;;12.90;99.90;;;;;;5093855;28;20424;-77
2022/10/15 01:49:03;;;;;;;53.45;34.00;;;12.90;99.90;;;;;;5094127;28;20047;-76
2022/10/15 01:51:32;;;;;;;55.75;35.03;;;13.20;99.90;;;;;;5111490;28;20039;-77
2022/10/15 01:53:59;;;;;;;53.05;33.97;;;13.40;99.90;;;;;;5096151;28;20392;-77
2022/10/15 01:56:26;;;;;;;52.88;34.22;;;12.90;99.90;;;;;;5113986;28;20047;-77
2022/10/15 01:58:54;;;;;;;50.83;33.75;;;13.20;99.90;;;;;;5107091;28;20124;-77
2022/10/15 02:01:20;;;;;;;59.13;34.85;;;13.80;99.90;;;;;;5105439;28;20116;-76
2022/10/15 02:03:51;;;;;;;51.15;33.00;;;12.90;99.90;;;;;;5075093;28;20040;-77
2022/10/15 02:06:26;;;;;;;54.90;33.45;;;12.90;99.90;;;;;;5075308;28;20075;-77
2022/10/15 02:09:06;;;;;;;48.40;31.67;;;12.90;99.90;;;;;;5093761;28;20439;-77
2022/10/15 02:11:55;;;;;;;54.20;32.40;;;12.90;99.90;;;;;;5093164;28;20481;-77
2022/10/15 02:14:33;;;;;;;52.63;31.98;;;13.50;99.90;;;;;;5093355;28;20044;-77
2022/10/15 02:17:05;;;;;;;51.92;31.90;;;12.80;99.90;;;;;;5073780;28;20051;-76
2022/10/15 02:19:48;;;;;;;50.00;32.33;;;13.80;99.90;;;;;;5093678;28;20062;-77
2022/10/15 02:22:37;;;;;;;51.83;31.80;;;12.90;99.90;;;;;;5074969;28;20040;-76
2022/10/15 02:25:12;;;;;;;54.08;34.10;;;12.80;99.90;;;;;;5093026;28;20049;-77
2022/10/15 02:27:39;;;;;;;52.25;32.58;;;12.80;99.90;;;;;;5058825;28;20040;-76
2022/10/15 02:30:08;;;;;;;52.22;33.08;;;12.80;99.90;;;;;;5093318;28;20048;-77
2022/10/15 02:32:37;;;;;;;51.53;32.42;;;12.80;99.90;;;;;;5092683;28;20066;-77
2022/10/15 02:35:05;;;;;;;52.25;30.40;;;12.80;99.90;;;;;;5113351;28;20085;-77
2022/10/15 02:37:32;;;;;;;52.58;32.30;;;12.80;99.90;;;;;;5112953;28;20043;-77
2022/10/15 02:39:58;;;;;;;54.15;31.50;;;13.70;99.90;;;;;;5100504;28;20040;-77
2022/10/15 02:42:24;;;;;;;52.08;33.05;;;12.80;99.90;;;;;;5058008;28;20550;-77
2022/10/15 02:44:49;;;;;;;50.30;32.72;;;12.80;99.90;;;;;;5091823;28;20070;-77
2022/10/15 02:47:15;;;;;;;50.88;31.92;;;12.70;99.90;;;;;;5093035;28;20111;-76
2022/10/15 02:49:41;;;;;;;55.72;32.22;;;12.70;99.90;;;;;;5092970;28;20098;-77
2022/10/15 02:52:07;;;;;;;52.05;32.97;;;12.90;99.90;;;;;;5074481;28;20072;-77
2022/10/15 02:54:32;;;;;;;48.85;31.45;;;12.70;99.90;;;;;;5090448;28;20464;-76
2022/10/15 02:56:58;;;;;;;47.88;32.28;;;12.70;99.90;;;;;;5075841;28;20503;-77
2022/10/15 02:59:23;;;;;;;46.92;30.42;;;12.70;99.90;;;;;;5094855;28;20094;-77
2022/10/15 03:01:49;;;;;;;53.63;32.75;;;12.70;99.90;;;;;;5094615;28;20031;-76
2022/10/15 03:04:15;;;;;;;55.88;32.70;;;12.70;99.90;;;;;;5110695;28;20071;-77
2022/10/15 03:06:40;;;;;;;51.65;31.63;;;13.00;99.90;;;;;;5113015;28;20369;-77
2022/10/15 03:09:06;;;;;;;50.97;31.20;;;13.90;99.90;;;;;;5113095;28;20071;-76
2022/10/15 03:11:31;;;;;;;51.15;31.58;;;12.70;99.90;;;;;;5081023;28;20070;-77
2022/10/15 03:13:57;;;;;;;48.25;31.92;;;12.70;99.90;;;;;;5074446;28;20040;-77
2022/10/15 03:16:23;;;;;;;48.63;31.63;;;13.00;99.90;;;;;;5075801;28;20051;-77
2022/10/15 03:18:48;;;;;;;47.70;31.13;;;12.60;99.90;;;;;;5097048;28;20063;-77
2022/10/15 03:21:14;;;;;;;50.22;32.63;;;12.60;99.90;;;;;;5096667;28;20071;-77
2022/10/15 03:23:40;;;;;;;50.30;31.38;;;13.10;99.90;;;;;;5096653;28;20072;-77
2022/10/15 03:26:06;;;;;;;49.80;31.52;;;12.60;99.90;;;;;;5106871;28;20104;-77
2022/10/15 03:28:32;;;;;;;48.20;31.52;;;12.90;99.90;;;;;;5098803;28;20476;-76
2022/10/15 03:30:58;;;;;;;54.70;32.83;;;12.70;99.90;;;;;;5116952;28;20418;-77
2022/10/15 03:33:24;;;;;;;51.10;31.98;;;12.80;99.90;;;;;;5081492;28;20040;-76
2022/10/15 03:35:50;;;;;;;47.63;32.92;;;12.60;99.90;;;;;;5114881;28;20400;-77
2022/10/15 03:38:16;;;;;;;50.28;32.65;;;12.60;99.90;;;;;;5095144;28;20092;-76
2022/10/15 03:40:44;;;;;;;47.53;32.38;;;12.70;99.90;;;;;;5116286;28;20043;-77
2022/10/15 03:43:09;;;;;;;49.25;32.53;;;12.60;99.90;;;;;;5097794;28;20047;-76
2022/10/15 03:45:35;;;;;;;52.50;32.53;;;12.60;99.90;;;;;;5096772;28;20040;-77
2022/10/15 03:48:00;;;;;;;44.92;31.42;;;12.60;99.90;;;;;;5098533;28;20035;-77
2022/10/15 03:50:26;;;;;;;50.90;32.45;;;13.70;99.90;;;;;;5116539;28;20046;-77
2022/10/15 03:52:52;;;;;;;50.17;30.38;;;12.70;99.90;;;;;;5116094;28;20062;-76
2022/10/15 03:55:17;;;;;;;50.83;32.58;;;12.70;99.90;;;;;;5076911;28;20044;-77
2022/10/15 03:57:43;;;;;;;45.92;30.33;;;12.60;99.90;;;;;;5096156;28;20121;-76
2022/10/15 04:00:11;;;;;;;48.17;30.52;;;13.90;99.90;;;;;;5096355;28;20477;-77
2022/10/15 04:02:36;;;;;;;47.50;31.77;;;12.60;99.90;;;;;;5095993;28;20400;-77
2022/10/15 04:05:02;;;;;;;54.58;31.95;;;12.90;99.90;;;;;;5095716;28;20040;-77
2022/10/15 04:07:28;;;;;;;47.67;30.27;;;12.70;99.90;;;;;;5077965;28;20123;-76
2022/10/15 04:09:53;;;;;;;51.85;31.05;;;12.70;99.90;;;;;;5077643;28;20051;-77
2022/10/15 04:12:19;;;;;;;52.53;31.35;;;12.70;99.90;;;;;;5095628;28;20044;-76
2022/10/15 04:14:44;;;;;;;53.75;31.48;;;13.10;99.90;;;;;;5096200;28;20515;-76
2022/10/15 04:17:10;;;;;;;52.10;31.63;;;12.70;99.90;;;;;;5077532;28;20039;-76
2022/10/15 04:19:36;;;;;;;58.03;33.70;;;12.70;99.90;;;;;;5095807;28;20062;-76
2022/10/15 04:22:02;;;;;;;57.50;33.47;;;13.80;99.90;;;;;;5078037;28;20044;-77
2022/10/15 04:24:28;;;;;;;57.95;34.55;;;13.00;99.90;;;;;;5095582;28;20569;-77
2022/10/15 04:26:53;;;;;;;59.50;32.60;;;12.60;99.90;;;;;;5075031;28;20051;-76
2022/10/15 04:29:19;;;;;;;57.17;34.00;;;12.70;99.90;;;;;;5095606;28;20419;-77
2022/10/15 04:31:45;;;;;;;57.38;34.08;;;12.60;99.90;;;;;;5095244;28;20384;-77
2022/10/15 04:34:10;;;;;;;58.33;34.90;;;12.60;99.90;;;;;;5095240;28;20090;-76
2022/10/15 04:36:36;;;;;;;65.18;36.50;;;12.50;99.90;;;;;;5113924;28;20051;-76
2022/10/15 04:39:03;;;;;;;64.47;36.10;;;13.20;99.90;;;;;;5110349;28;20488;-76
2022/10/15 04:41:29;;;;;;;62.15;34.72;;;12.50;99.90;;;;;;5060326;28;20044;-76
2022/10/15 04:43:56;;;;;;;62.65;35.50;;;12.60;99.90;;;;;;5095383;28;20044;-76
2022/10/15 04:46:22;;;;;;;58.70;32.97;;;12.50;99.90;;;;;;5095154;28;20043;-77
2022/10/15 04:48:48;;;;;;;63.60;35.20;;;12.50;99.90;;;;;;5095098;28;20476;-77
2022/10/15 04:51:19;;;;;;;63.67;36.72;;;12.50;99.90;;;;;;5094119;28;20052;-76
2022/10/15 04:53:45;;;;;;;61.13;34.20;;;13.80;99.90;;;;;;5076589;28;20052;-77
2022/10/15 04:56:14;;;;;;;62.03;35.90;;;12.50;99.90;;;;;;5094809;28;20101;-76
2022/10/15 04:58:41;;;;;;;63.90;36.00;;;13.30;99.90;;;;;;5095211;28;20040;-76
2022/10/15 05:01:12;;;;;;;68.95;36.60;;;12.80;99.90;;;;;;5094955;28;20111;-76
2022/10/15 05:03:39;;;;;;;60.88;34.95;;;12.40;99.90;;;;;;5104223;28;20040;-77
2022/10/15 05:06:07;;;;;;;53.20;32.55;;;12.40;99.90;;;;;;5115057;28;20130;-76
2022/10/15 05:08:34;;;;;;;57.28;33.10;;;12.40;99.90;;;;;;5115403;28;20036;-77
2022/10/15 05:11:04;;;;;;;54.63;34.13;;;12.50;99.90;;;;;;5096316;28;20044;-76
2022/10/15 05:13:30;;;;;;;52.47;32.75;;;12.40;99.90;;;;;;5096746;28;20054;-77
2022/10/15 05:15:56;;;;;;;53.97;33.85;;;12.40;99.90;;;;;;5098243;28;20075;-77
2022/10/15 05:18:22;;;;;;;55.75;33.78;;;12.30;99.90;;;;;;5103354;28;20503;-76
2022/10/15 05:20:47;;;;;;;55.67;33.72;;;12.40;99.90;;;;;;5115163;28;20127;-77
2022/10/15 05:23:13;;;;;;;50.92;30.35;;;13.30;99.90;;;;;;5114718;28;20044;-77
2022/10/15 05:25:39;;;;;;;59.58;35.42;;;13.10;99.90;;;;;;5096356;28;20043;-76
2022/10/15 05:28:04;;;;;;;55.47;34.38;;;12.40;99.90;;;;;;5079569;28;20149;-77
2022/10/15 05:30:30;;;;;;;55.00;33.55;;;13.70;99.90;;;;;;5094698;28;20114;-76
2022/10/15 05:32:56;;;;;;;56.63;34.60;;;13.00;99.90;;;;;;5092064;28;20485;-77
2022/10/15 05:35:22;;;;;;;57.90;34.75;;;13.10;99.90;;;;;;5094491;28;20060;-76
2022/10/15 05:37:48;;;;;;;55.10;34.63;;;12.50;99.90;;;;;;5075758;28;20064;-77
2022/10/15 05:40:14;;;;;;;56.65;35.03;;;13.00;99.90;;;;;;5093399;28;20040;-77
2022/10/15 05:42:39;;;;;;;61.05;35.03;;;12.40;99.90;;;;;;5093822;28;20607;-77
2022/10/15 05:45:06;;;;;;;56.83;35.88;;;12.30;99.90;;;;;;5076070;28;20051;-77
2022/10/15 05:47:31;;;;;;;58.72;35.70;;;12.30;99.90;;;;;;5092866;28;20031;-77
2022/10/15 05:49:57;;;;;;;61.30;37.25;;;12.30;99.90;;;;;;5075896;28;20050;-77
2022/10/15 05:52:22;;;;;;;60.58;37.33;;;13.50;99.90;;;;;;5074457;28;20036;-77
2022/10/15 05:54:48;;;;;;;68.63;37.90;;;13.30;99.90;;;;;;5093497;28;20511;-77
2022/10/15 05:57:14;;;;;;;63.30;38.75;;;13.70;99.90;;;;;;5095279;28;20063;-77
2022/10/15 05:59:39;;;;;;;66.78;37.85;;;12.40;99.90;;;;;;5096091;28;20051;-76
2022/10/15 06:02:05;;;;;;;65.25;37.55;;;13.00;99.90;;;;;;5113878;28;20495;-77
2022/10/15 06:04:31;;;;;;;64.50;38.40;;;13.50;99.90;;;;;;5095351;28;20047;-77
2022/10/15 06:06:57;;;;;;;61.58;38.13;;;12.40;99.90;;;;;;5091879;28;20071;-77
2022/10/15 06:09:23;;;;;;;62.67;38.85;;;12.50;99.90;;;;;;5093321;28;20540;-77
2022/10/15 06:11:48;;;;;;;66.07;40.00;;;12.40;99.90;;;;;;5086756;28;20128;-77
2022/10/15 06:14:14;;;;;;;70.65;39.83;;;12.40;99.90;;;;;;5078109;28;20047;-76
2022/10/15 06:16:40;;;;;;;70.10;40.60;;;12.40;99.90;;;;;;5090882;28;20079;-77
2022/10/15 06:19:05;;;;;;;71.82;40.88;;;13.30;99.90;;;;;;5092158;28;20476;-77
2022/10/15 06:21:31;;;;;;;67.28;40.50;;;12.40;99.90;;;;;;5074979;28;20048;-76
2022/10/15 06:23:56;;;;;;;69.28;40.60;;;12.50;99.90;;;;;;5106977;28;20038;-77
2022/10/15 06:26:22;;;;;;;70.15;40.40;;;12.50;99.90;;;;;;5113495;28;20047;-77
2022/10/15 06:28:48;;;;;;;71.00;42.05;;;13.10;99.90;;;;;;5086347;28;20446;-77
2022/10/15 06:31:13;;;;;;;69.20;40.75;;;12.50;99.90;;;;;;5092991;28;20040;-77
2022/10/15 06:33:39;;;;;;;80.20;41.97;;;12.50;99.90;;;;;;5093171;28;20036;-77
2022/10/15 06:36:09;;;;;;;80.93;42.83;;;12.80;99.90;;;;;;5092612;28;20059;-77
2022/10/15 06:38:35;;;;;;;73.03;41.35;;;13.10;99.90;;;;;;5091922;28;20032;-77
2022/10/15 06:41:05;;;;;;;71.63;40.58;;;12.80;99.90;;;;;;5112524;28;20123;-77
2022/10/15 06:43:31;;;;;;;68.25;39.60;;;12.50;99.90;;;;;;5112080;28;20111;-77
2022/10/15 06:45:58;;;;;;;73.70;39.85;;;13.70;99.90;;;;;;5094590;28;20093;-77
2022/10/15 06:48:24;;;;;;;71.93;40.88;;;12.60;99.90;;;;;;5113408;28;20046;-77
2022/10/15 06:50:50;;;;;;;68.63;39.10;;;12.60;99.90;;;;;;5112281;28;20474;-77
2022/10/15 06:53:15;;;;;;;71.93;42.35;;;12.60;99.90;;;;;;5112918;28;20496;-77
2022/10/15 06:55:41;;;;;;;72.85;42.60;;;13.10;99.90;;;;;;5111150;28;20406;-77
2022/10/15 06:58:07;;;;;;;72.93;42.63;;;13.10;99.90;;;;;;5094936;28;20158;-77
2022/10/15 07:00:33;;;;;;;73.80;41.00;;;13.80;99.90;;;;;;5069319;28;20101;-77
2022/10/15 07:03:03;;;;;;;72.38;41.50;;;13.50;99.90;;;;;;5108479;28;20052;-77
2022/10/15 07:05:29;;;;;;;75.25;41.97;;;13.30;99.90;;;;;;5094599;28;20345;-77
2022/10/15 07:07:56;;;;;;;72.03;41.22;;;13.20;99.90;;;;;;5112964;28;20049;-77
2022/10/15 07:10:22;;;;;;;66.38;40.45;;;13.70;99.90;;;;;;5112932;28;20054;-77
2022/10/15 07:12:48;;;;;;;71.70;42.38;;;13.80;99.90;;;;;;5112545;28;20494;-77
2022/10/15 07:15:14;;;;;;;67.57;38.72;;;13.80;99.90;;;;;;5102249;28;20119;-77
2022/10/15 07:17:46;;;;;;;68.60;42.40;;;12.80;99.90;;;;;;5092867;28;20040;-77
2022/10/15 07:20:11;;;;;;;73.32;42.33;;;12.70;99.90;;;;;;5092878;28;20052;-77
2022/10/15 07:22:37;;;;;;;75.35;42.17;;;12.70;99.90;;;;;;5092086;28;20036;-78
2022/10/15 07:25:03;;;;;;;75.18;42.00;;;12.70;99.90;;;;;;5074328;28;20063;-78
2022/10/15 07:27:28;;;;;;;75.57;41.85;;;12.80;99.90;;;;;;5074023;28;20063;-78
2022/10/15 07:29:54;;;;;;;72.55;42.13;;;12.80;99.90;;;;;;5093551;28;20044;-78
2022/10/15 07:32:19;;;;;;;76.53;44.08;;;13.30;99.90;;;;;;5092056;28;20434;-78
2022/10/15 07:34:45;;;;;;;72.65;41.67;;;13.00;99.90;;;;;;5056848;28;20094;-77
2022/10/15 07:37:11;;;;;;;74.45;40.90;;;12.90;99.90;;;;;;5082616;28;20485;-77
2022/10/15 07:39:36;;;;;;;76.40;42.65;;;14.00;99.90;;;;;;5091936;28;20101;-77
2022/10/15 07:42:02;;;;;;;77.13;42.90;;;12.90;99.90;;;;;;5073572;28;20097;-77
2022/10/15 07:44:28;;;;;;;74.38;40.25;;;12.90;99.90;;;;;;5091115;28;20489;-78
2022/10/15 07:46:53;;;;;;;74.22;42.45;;;12.90;99.90;;;;;;5083811;28;20055;-77
2022/10/15 07:49:19;;;;;;;71.18;41.38;;;13.50;99.90;;;;;;5092503;28;20050;-77
2022/10/15 07:51:44;;;;;;;74.38;42.78;;;13.00;99.90;;;;;;5092439;28;20384;-77
2022/10/15 07:54:10;;;;;;;63.75;38.40;;;13.30;99.90;;;;;;5074234;28;20055;-77
2022/10/15 07:56:36;;;;;;;65.43;39.75;;;;;;;;;;5092128;28;20154;-77
2022/10/15 07:59:02;;;;;;;61.65;38.58;;;;;;;;;;5093124;28;20051;-76
2022/10/15 08:01:28;;;;;;;60.25;37.00;;;;;;;;;;5072413;28;20187;-78
2022/10/15 08:03:54;;;;;;;59.00;37.80;;;;;;;;;;5077509;28;20043;-78
2022/10/15 08:06:20;;;;;;;57.35;36.15;;;;;;;;;;5077536;28;20055;-78
2022/10/15 08:08:46;;;;;;;53.65;35.33;;;;;;;;;;5077792;28;20040;-78
2022/10/15 08:11:14;;;;;;;56.38;36.60;;;;;;;;;;5094221;28;20400;-78
2022/10/15 08:13:41;;;;;;;52.45;35.00;;;;;;;;;;5095962;28;20040;-79
2022/10/15 08:16:07;;;;;;;53.90;34.88;;;;;;;;;;5097434;28;20126;-79
2022/10/15 08:18:35;;;;;;;51.63;34.58;;;;;;;;;;5115759;28;20564;-75
2022/10/15 08:21:01;;;;;;;54.83;35.10;;;;;;;;;;5097440;28;20404;-76
2022/10/15 08:23:27;;;;;;;54.00;36.13;;;;;;;;;;5083828;28;20032;-76
2022/10/15 08:25:53;;;;;;;49.85;33.92;;;;;;;;;;5075606;28;20051;-75
2022/10/15 08:28:19;;;;;;;52.88;35.03;;;;;;;;;;5115582;28;20115;-77
2022/10/15 08:30:46;;;;;;;48.58;31.95;;;;;;;;;;5097579;28;20047;-76
2022/10/15 08:33:12;;;;;;;56.13;35.50;;;;;;;;;;5115529;28;20370;-77
2022/10/15 08:35:40;;;;;;;54.55;35.20;;;;;;;;;;5097241;28;20063;-75
2022/10/15 08:38:06;;;;;;;52.95;34.63;;;;;;;;;;5110852;28;20085;-75
2022/10/15 08:40:32;;;;;;;57.30;36.38;;;;;;;;;;5110741;28;20035;-77
2022/10/15 08:42:58;;;;;;;55.10;34.40;;;;;;;;;;5079913;28;20104;-77
2022/10/15 08:45:24;;;;;;;50.83;35.25;;;;;;;;;;5113641;28;20051;-77
2022/10/15 08:47:54;;;;;;;51.67;32.90;;;;;;;;;;5080202;28;20044;-77
2022/10/15 08:50:27;;;;;;;48.15;32.85;;;;;;;;;;5078453;28;20040;-77
2022/10/15 08:52:54;;;;;;;46.50;31.90;;;;;;;;;;5068119;28;20504;-77
2022/10/15 08:55:21;;;;;;;48.47;32.10;;;;;;;;;;5108011;28;20040;-76
2022/10/15 08:58:00;;;;;;;49.40;31.55;;;;;;;;;;5062881;28;20036;-76
2022/10/15 09:00:36;;;;;;;50.60;33.63;;;;;;;;;;5104334;28;20070;-78
2022/10/15 09:03:09;;;;;;;50.83;33.90;;;;;;;;;;5114938;28;20043;-77
2022/10/15 09:05:41;;;;;;;49.78;34.20;;;;;;;;;;5083577;28;20122;-77
2022/10/15 09:08:18;;;;;;;58.58;35.30;;;;;;;;;;5115018;28;20096;-77
2022/10/15 09:10:44;;;;;;;55.80;35.88;;;;;;;;;;5079892;28;20055;-77
2022/10/15 09:13:27;;;;;;;56.90;35.70;;;;;;;;;;5096041;28;20039;-77
2022/10/15 09:15:59;;;;;;;52.65;34.00;;;;;;;;;;5098531;28;20041;-77
2022/10/15 09:18:27;;;;;;;56.22;36.38;;;;;;;;;;5075329;28;20127;-77
2022/10/15 09:20:53;;;;;;;54.90;36.45;;;;;;;;;;5091816;28;20520;-77
2022/10/15 09:23:21;;;;;;;54.95;35.70;;;;;;;;;;5094297;28;20397;-77
2022/10/15 09:25:51;;;;;;;52.40;35.60;;;;;;;;;;5094264;28;20063;-78
2022/10/15 09:28:19;;;;;;;47.85;32.72;;;;;;;;;;5093942;28;20412;-77
2022/10/15 09:30:48;;;;;;;44.88;30.42;;;;;;;;;;5076170;28;20052;-77
2022/10/15 09:33:17;;;;;;;45.50;30.27;;;;;;;;;;5059913;28;20044;-77
2022/10/15 09:35:46;;;;;;;45.92;30.23;;;;;;;;;;5094108;28;20081;-77
2022/10/15 09:38:13;;;;;;;43.92;29.70;;;;;;;;;;5076061;28;20048;-77
2022/10/15 09:40:51;;;;;;;46.83;30.80;;;;;;;;;;5094062;28;20062;-76
2022/10/15 09:43:26;;;;;;;40.45;25.65;;;;;;;;;;5093483;28;20051;-77
2022/10/15 09:45:52;;;;;;;41.83;28.60;;;;;;;;;;5077811;28;20318;-77
2022/10/15 09:48:19;;;;;;;43.17;28.10;;;;;;;;;;5094087;28;20044;-77
2022/10/15 09:50:49;;;;;;;42.75;28.98;;;;;;;;;;5100967;28;20428;-76
2022/10/15 09:53:22;;;;;;;45.20;28.50;;;;;;;;;;5095362;28;20101;-76
2022/10/15 09:55:51;;;;;;;43.30;28.00;;;;;;;;;;5076315;28;20472;-76
2022/10/15 09:58:23;;;;;;;42.53;28.10;;;;;;;;;;5094962;28;20077;-76
2022/10/15 10:00:54;;;;;;;42.03;26.13;;;;;;;;;;5095432;28;20525;-78
2022/10/15 10:03:21;;;;;;;42.85;28.23;;;13.80;99.90;;;;;;5095528;28;20054;-77
2022/10/15 10:05:48;;;;;;;46.42;29.48;;;15.00;99.90;;;;;;5113670;28;20054;-77
2022/10/15 10:08:23;;;;;;;48.30;28.30;;;14.80;99.90;;;;;;5095179;28;20547;-77
2022/10/15 10:10:56;;;;;;;49.15;29.83;;;13.90;99.90;;;;;;5094628;28;20054;-76
2022/10/15 10:13:35;;;;;;;50.67;29.95;;;14.70;99.90;;;;;;5087862;28;20040;-77
2022/10/15 10:16:11;;;;;;;49.75;30.25;;;13.90;99.90;;;;;;5092616;28;20090;-77
2022/10/15 10:18:38;;;;;;;50.10;29.23;;;14.90;99.90;;;;;;5097622;28;20031;-78
2022/10/15 10:21:29;;;;;;;56.35;31.85;;;14.20;99.90;;;;;;5095232;28;20035;-77
2022/10/15 10:23:54;;;;;;;53.38;30.90;;;13.90;99.90;;;;;;5099034;28;20056;-77
2022/10/15 10:26:20;;;;;;;62.88;30.27;;;13.90;99.90;;;;;;5094819;28;20050;-77
2022/10/15 10:28:52;;;;;;;43.53;24.85;;;14.60;99.90;;;;;;5113308;28;20155;-78
2022/10/15 10:31:41;;;;;;;49.28;27.92;;;13.90;99.90;;;;;;5080957;28;20050;-77
2022/10/15 10:34:15;;;;;;;48.38;27.50;;;13.90;99.90;;;;;;5058089;28;20044;-77
2022/10/15 10:36:41;;;;;;;42.40;24.98;;;;;;;;;;5093848;28;20051;-77
2022/10/15 10:39:13;;;;;;;38.58;23.13;;;;;;;;;;5093067;28;20184;-77
2022/10/15 10:41:59;;;;;;;41.75;23.85;;;;;;;;;;5101285;28;20042;-77
2022/10/15 10:44:28;;;;;;;39.17;23.45;;;;;;;;;;5109659;28;20039;-76
2022/10/15 10:47:23;;;;;;;31.17;20.10;;;;;;;;;;5111743;28;20056;-77
2022/10/15 10:49:53;;;;;;;33.53;21.08;;;;;;;;;;5091422;28;20055;-77
2022/10/15 10:52:26;;;;;;;30.83;20.83;;;;;;;;;;5097871;28;20187;-76
2022/10/15 10:54:57;;;;;;;31.30;19.35;;;;;;;;;;5074758;28;20049;-79
2022/10/15 10:57:27;;;;;;;29.83;19.23;;;;;;;;;;5074171;28;20071;-77
2022/10/15 10:59:55;;;;;;;27.50;18.88;;;;;;;;;;5092719;28;20076;-77
2022/10/15 11:02:21;;;;;;;28.73;19.00;;;;;;;;;;5086003;28;20097;-77
2022/10/15 11:04:47;;;;;;;26.77;18.00;;;;;;;;;;5092354;28;20556;-77
2022/10/15 11:07:36;;;;;;;28.23;18.17;;;;;;;;;;5091875;28;20037;-77
2022/10/15 11:10:16;;;;;;;26.35;16.13;;;;;;;;;;5098226;28;20040;-77
2022/10/15 11:12:48;;;;;;;25.75;16.50;;;;;;;;;;5107598;28;20400;-77
2022/10/15 11:15:32;;;;;;;26.52;17.20;;;;;;;;;;5104830;28;20040;-78
2022/10/15 11:18:16;;;;;;;24.17;16.40;;;;;;;;;;5111768;28;20131;-78
2022/10/15 11:20:48;;;;;;;22.17;13.60;;;;;;;;;;5089599;28;20527;-77
2022/10/15 11:23:17;;;;;;;22.95;15.73;;;;;;;;;;5112726;28;20055;-76
2022/10/15 11:25:52;;;;;;;21.63;15.00;;;;;;;;;;5099675;28;20036;-77
2022/10/15 11:28:24;;;;;;;22.05;14.77;;;;;;;;;;5050183;28;20040;-77
2022/10/15 11:31:08;;;;;;;23.65;15.27;;;;;;;;;;5108044;28;20056;-77
2022/10/15 11:33:49;;;;;;;21.75;15.02;;;;;;;;;;5075158;28;20072;-78
2022/10/15 11:36:21;;;;;;;21.27;14.82;;;;;;;;;;5075525;28;20052;-77
2022/10/15 11:38:53;;;;;;;19.60;13.38;;;;;;;;;;5061370;28;20369;-78
2022/10/15 11:41:26;;;;;;;21.73;14.80;;;;;;;;;;5090039;28;20082;-78
2022/10/15 11:43:55;;;;;;;19.52;14.23;;;;;;;;;;5096152;28;20087;-78
2022/10/15 11:46:27;;;;;;;20.85;15.02;;;;;;;;;;5067926;28;20077;-77
2022/10/15 11:49:08;;;;;;;19.30;14.60;;;;;;;;;;5081224;28;20484;-78
2022/10/15 11:51:44;;;;;;;20.60;14.63;;;;;;;;;;5077817;28;20074;-79
2022/10/15 11:54:13;;;;;;;19.85;14.75;;;;;;;;;;5078460;28;20044;-77
2022/10/15 11:56:40;;;;;;;22.52;15.13;;;;;;;;;;5078300;28;20051;-77
2022/10/15 11:59:09;;;;;;;22.08;15.27;;;;;;;;;;5109649;28;20093;-77
2022/10/15 12:01:38;;;;;;;20.83;15.18;;;;;;;;;;5081123;28;20498;-78
2022/10/15 12:04:18;;;;;;;21.02;15.73;;;;;;;;;;5097139;28;20500;-78
2022/10/15 12:06:49;;;;;;;19.27;14.77;;;;;;;;;;5077141;28;20043;-78
2022/10/15 12:09:19;;;;;;;19.23;13.88;;;;;;;;;;5086253;28;20453;-78
2022/10/15 12:11:50;;;;;;;18.27;13.75;;;;;;;;;;5093791;28;20062;-78
2022/10/15 12:14:36;;;;;;;19.55;13.95;;;;;;;;;;5096074;28;20041;-78
2022/10/15 12:17:20;;;;;;;19.55;14.70;;;;;;;;;;5077074;28;20150;-78
2022/10/15 12:20:10;;;;;;;20.55;15.02;;;;;;;;;;5077943;28;20059;-78
2022/10/15 12:22:52;;;;;;;21.92;15.00;;;;;;;;;;5069768;28;20505;-78
2022/10/15 12:25:33;;;;;;;23.58;15.27;;;;;;;;;;5102365;28;20043;-77
2022/10/15 12:28:04;;;;;;;21.65;15.63;;;;;;;;;;5116282;28;20052;-77
2022/10/15 12:30:33;;;;;;;19.23;14.45;;;;;;;;;;5093003;28;20046;-77
2022/10/15 12:33:00;;;;;;;18.30;14.20;;;;;;;;;;5106824;28;20044;-77
2022/10/15 12:35:29;;;;;;;18.45;13.57;;;;;;;;;;5076355;28;20060;-77
2022/10/15 12:37:55;;;;;;;21.35;14.52;;;;;;;;;;5112161;28;20044;-78
2022/10/15 12:40:21;;;;;;;17.63;13.75;;;;;;;;;;5080917;28;20097;-77
2022/10/15 12:42:52;;;;;;;16.73;13.32;;;;;;;;;;5094580;28;20043;-77
2022/10/15 12:45:22;;;;;;;20.13;13.68;;;;;;;;;;5077034;28;20128;-77
2022/10/15 12:47:49;;;;;;;18.30;13.05;;;;;;;;;;5076075;28;20393;-77
2022/10/15 12:50:36;;;;;;;20.17;13.70;;;;;;;;;;5075602;28;20074;-77
2022/10/15 12:53:02;;;;;;;20.77;13.43;;;;;;;;;;5077016;28;20404;-78
2022/10/15 12:55:38;;;;;;;17.73;14.20;;;;;;;;;;5095903;28;20119;-77
2022/10/15 12:58:06;;;;;;;19.48;14.45;;;;;;;;;;5077510;28;20056;-78
2022/10/15 13:00:37;;;;;;;19.60;14.77;;;;;;;;;;5095270;28;20047;-77
2022/10/15 13:03:29;;;;;;;19.90;14.90;;;;;;;;;;5095365;28;20560;-78
2022/10/15 13:05:55;;;;;;;22.65;15.57;;;;;;;;;;5063967;28;20050;-77
2022/10/15 13:08:25;;;;;;;21.00;15.57;;;;;;;;;;5094681;28;20052;-77
2022/10/15 13:10:54;;;;;;;27.05;16.77;;;;;;;;;;5076457;28;20048;-77
2022/10/15 13:13:25;;;;;;;26.13;17.65;;;;;;;;;;5094487;28;20048;-78
2022/10/15 13:15:58;;;;;;;27.10;19.33;;;;;;;;;;5094570;28;20097;-78